sensor_id;sensor_type;location;lat;lon;timestamp;pressure;altitude;pressure_sealevel;temperature;humidity
12879;BME280;20617;49.476;10.986;2023-05-21T00:01:10;97951.22;;;19.56;100.00
12879;BME280;20617;49.476;10.986;2023-05-21T00:03:17;97957.34;;;19.57;100.00
12879;BME280;20617;49.476;10.986;2023-05-21T00:05:22;97955.22;;;19.51;100.00
12879;BME280;20617;49.476;10.986;2023-05-21T00:07:27;97953.66;;;19.48;100.00
12879;BME280;20617;49.476;10.986;2023-05-21T00:09:34;97943.09;;;19.48;100.00
12879;BME280;20617;49.476;10.986;2023-05-21T00:11:39;97945.16;;;19.44;100.00
12879;BME280;20617;49.476;10.986;2023-05-21T00:13:44;97945.06;;;19.46;100.00
12879;BME280;20617;49.476;10.986;2023-05-21T00:15:49;97940.97;;;19.42;100.00
12879;BME280;20617;49.476;10.986;2023-05-21T00:17:57;97942.22;;;19.38;100.00
12879;BME280;20617;49.476;10.986;2023-05-21T00:20:02;97941.94;;;19.41;100.00
12879;BME280;20617;49.476;10.986;2023-05-21T00:22:11;97942.78;;;19.41;100.00
12879;BME280;20617;49.476;10.986;2023-05-21T00:24:16;97940.00;;;19.43;100.00
12879;BME280;20617;49.476;10.986;2023-05-21T00:26:22;97944.19;;;19.45;100.00
12879;BME280;20617;49.476;10.986;2023-05-21T00:28:30;97929.91;;;19.48;100.00
12879;BME280;20617;49.476;10.986;2023-05-21T00:30:36;97927.41;;;19.47;100.00
12879;BME280;20617;49.476;10.986;2023-05-21T00:32:40;97923.31;;;19.42;100.00
12879;BME280;20617;49.476;10.986;2023-05-21T00:34:48;97926.38;;;19.38;100.00
12879;BME280;20617;49.476;10.986;2023-05-21T00:36:54;97923.00;;;19.36;100.00
12879;BME280;20617;49.476;10.986;2023-05-21T00:38:59;97924.09;;;19.33;100.00
12879;BME280;20617;49.476;10.986;2023-05-21T00:41:05;97931.91;;;19.35;100.00
12879;BME280;20617;49.476;10.986;2023-05-21T00:43:11;97932.59;;;19.37;100.00
12879;BME280;20617;49.476;10.986;2023-05-21T00:45:16;97923.00;;;19.36;100.00
12879;BME280;20617;49.476;10.986;2023-05-21T00:47:21;97921.34;;;19.35;100.00
12879;BME280;20617;49.476;10.986;2023-05-21T00:49:29;97923.00;;;19.36;100.00
12879;BME280;20617;49.476;10.986;2023-05-21T00:51:36;97918.00;;;19.33;100.00
12879;BME280;20617;49.476;10.986;2023-05-21T00:53:43;97920.06;;;19.29;100.00
12879;BME280;20617;49.476;10.986;2023-05-21T00:55:49;97921.16;;;19.27;100.00
12879;BME280;20617;49.476;10.986;2023-05-21T00:57:55;97919.59;;;19.24;100.00
12879;BME280;20617;49.476;10.986;2023-05-21T01:00:00;97921.66;;;19.20;100.00
12879;BME280;20617;49.476;10.986;2023-05-21T01:02:08;97921.75;;;19.19;100.00
12879;BME280;20617;49.476;10.986;2023-05-21T01:04:15;97924.97;;;19.22;100.00
12879;BME280;20617;49.476;10.986;2023-05-21T01:06:21;97918.75;;;19.23;100.00
12879;BME280;20617;49.476;10.986;2023-05-21T01:08:31;97923.22;;;19.23;100.00
12879;BME280;20617;49.476;10.986;2023-05-21T01:10:37;97924.53;;;19.17;100.00
12879;BME280;20617;49.476;10.986;2023-05-21T01:12:43;97916.16;;;19.12;100.00
12879;BME280;20617;49.476;10.986;2023-05-21T01:14:48;97922.06;;;19.05;100.00
12879;BME280;20617;49.476;10.986;2023-05-21T01:16:57;97918.13;;;18.99;100.00
12879;BME280;20617;49.476;10.986;2023-05-21T01:19:04;97917.44;;;18.97;100.00
12879;BME280;20617;49.476;10.986;2023-05-21T01:21:12;97916.00;;;18.93;100.00
12879;BME280;20617;49.476;10.986;2023-05-21T01:23:20;97916.56;;;18.96;100.00
12879;BME280;20617;49.476;10.986;2023-05-21T01:25:28;97923.78;;;18.94;100.00
12879;BME280;20617;49.476;10.986;2023-05-21T01:27:35;97922.09;;;18.93;100.00
12879;BME280;20617;49.476;10.986;2023-05-21T01:29:40;97927.50;;;18.92;100.00
12879;BME280;20617;49.476;10.986;2023-05-21T01:32:03;97917.78;;;18.92;100.00
12879;BME280;20617;49.476;10.986;2023-05-21T01:34:12;97917.22;;;18.89;100.00
12879;BME280;20617;49.476;10.986;2023-05-21T01:36:22;97920.78;;;18.88;100.00
12879;BME280;20617;49.476;10.986;2023-05-21T01:38:35;97919.38;;;18.84;100.00
12879;BME280;20617;49.476;10.986;2023-05-21T01:40:45;97920.47;;;18.81;100.00
12879;BME280;20617;49.476;10.986;2023-05-21T01:42:51;97916.16;;;18.80;100.00
12879;BME280;20617;49.476;10.986;2023-05-21T01:44:57;97920.00;;;18.76;100.00
12879;BME280;20617;49.476;10.986;2023-05-21T01:47:04;97914.72;;;18.76;100.00
12879;BME280;20617;49.476;10.986;2023-05-21T01:49:10;97914.25;;;18.71;100.00
12879;BME280;20617;49.476;10.986;2023-05-21T01:51:15;97914.59;;;18.66;100.00
12879;BME280;20617;49.476;10.986;2023-05-21T01:53:20;97914.28;;;18.60;100.00
12879;BME280;20617;49.476;10.986;2023-05-21T01:55:28;97913.94;;;18.53;100.00
12879;BME280;20617;49.476;10.986;2023-05-21T01:57:33;97911.41;;;18.51;100.00
12879;BME280;20617;49.476;10.986;2023-05-21T01:59:38;97910.81;;;18.48;100.00
12879;BME280;20617;49.476;10.986;2023-05-21T02:01:45;97915.25;;;18.47;100.00
12879;BME280;20617;49.476;10.986;2023-05-21T02:03:50;97910.94;;;18.46;100.00
12879;BME280;20617;49.476;10.986;2023-05-21T02:05:55;97913.22;;;18.40;100.00
12879;BME280;20617;49.476;10.986;2023-05-21T02:08:00;97919.56;;;18.37;100.00
12879;BME280;20617;49.476;10.986;2023-05-21T02:10:07;97918.16;;;18.33;100.00
12879;BME280;20617;49.476;10.986;2023-05-21T02:12:15;97914.78;;;18.31;100.00
12879;BME280;20617;49.476;10.986;2023-05-21T02:14:20;97915.88;;;18.28;100.00
12879;BME280;20617;49.476;10.986;2023-05-21T02:16:26;97918.63;;;18.27;100.00
12879;BME280;20617;49.476;10.986;2023-05-21T02:18:31;97909.53;;;18.20;100.00
12879;BME280;20617;49.476;10.986;2023-05-21T02:20:37;97913.81;;;18.21;100.00
12879;BME280;20617;49.476;10.986;2023-05-21T02:22:43;97913.00;;;18.20;100.00
12879;BME280;20617;49.476;10.986;2023-05-21T02:24:49;97916.47;;;18.21;100.00
12879;BME280;20617;49.476;10.986;2023-05-21T02:26:54;97917.19;;;18.23;100.00
12879;BME280;20617;49.476;10.986;2023-05-21T02:29:07;97916.94;;;18.26;100.00
12879;BME280;20617;49.476;10.986;2023-05-21T02:31:12;97916.25;;;18.24;100.00
12879;BME280;20617;49.476;10.986;2023-05-21T02:33:17;97911.19;;;18.21;100.00
12879;BME280;20617;49.476;10.986;2023-05-21T02:35:22;97906.88;;;18.20;100.00
12879;BME280;20617;49.476;10.986;2023-05-21T02:37:28;97910.59;;;18.17;100.00
12879;BME280;20617;49.476;10.986;2023-05-21T02:39:34;97908.69;;;18.19;100.00
12879;BME280;20617;49.476;10.986;2023-05-21T02:41:53;97903.78;;;18.15;100.00
12879;BME280;20617;49.476;10.986;2023-05-21T02:43:58;97907.63;;;18.10;100.00
12879;BME280;20617;49.476;10.986;2023-05-21T02:46:06;97899.97;;;18.07;100.00
12879;BME280;20617;49.476;10.986;2023-05-21T02:48:12;97901.13;;;18.03;100.00
12879;BME280;20617;49.476;10.986;2023-05-21T02:50:18;97903.78;;;18.03;100.00
12879;BME280;20617;49.476;10.986;2023-05-21T02:52:29;97910.72;;;18.04;100.00
12879;BME280;20617;49.476;10.986;2023-05-21T02:54:34;97906.88;;;17.97;100.00
12879;BME280;20617;49.476;10.986;2023-05-21T02:56:39;97906.44;;;17.92;100.00
12879;BME280;20617;49.476;10.986;2023-05-21T02:58:44;97910.13;;;17.90;100.00
12879;BME280;20617;49.476;10.986;2023-05-21T03:00:49;97907.59;;;17.88;100.00
12879;BME280;20617;49.476;10.986;2023-05-21T03:02:57;97905.94;;;17.87;100.00
12879;BME280;20617;49.476;10.986;2023-05-21T03:05:03;97913.00;;;17.86;100.00
12879;BME280;20617;49.476;10.986;2023-05-21T03:07:08;97908.69;;;17.85;100.00
12879;BME280;20617;49.476;10.986;2023-05-21T03:09:15;97908.69;;;17.85;100.00
12879;BME280;20617;49.476;10.986;2023-05-21T03:11:19;97908.09;;;17.82;100.00
12879;BME280;20617;49.476;10.986;2023-05-21T03:13:24;97906.19;;;17.84;100.00
12879;BME280;20617;49.476;10.986;2023-05-21T03:15:29;97906.03;;;17.85;100.00
12879;BME280;20617;49.476;10.986;2023-05-21T03:17:34;97909.75;;;17.83;100.00
12879;BME280;20617;49.476;10.986;2023-05-21T03:19:42;97909.66;;;17.84;100.00
12879;BME280;20617;49.476;10.986;2023-05-21T03:21:50;97911.31;;;17.85;100.00
12879;BME280;20617;49.476;10.986;2023-05-21T03:23:57;97915.63;;;17.86;100.00
12879;BME280;20617;49.476;10.986;2023-05-21T03:26:03;97913.59;;;17.90;100.00
12879;BME280;20617;49.476;10.986;2023-05-21T03:28:08;97910.00;;;17.91;100.00
12879;BME280;20617;49.476;10.986;2023-05-21T03:30:17;97917.91;;;17.91;100.00
12879;BME280;20617;49.476;10.986;2023-05-21T03:32:43;97912.88;;;17.88;100.00
12879;BME280;20617;49.476;10.986;2023-05-21T03:34:53;97916.56;;;17.85;100.00
12879;BME280;20617;49.476;10.986;2023-05-21T03:36:58;97916.72;;;17.84;100.00
12879;BME280;20617;49.476;10.986;2023-05-21T03:39:04;97913.09;;;17.85;100.00
12879;BME280;20617;49.476;10.986;2023-05-21T03:41:09;97917.06;;;17.79;100.00
12879;BME280;20617;49.476;10.986;2023-05-21T03:43:16;97920.84;;;17.75;100.00
12879;BME280;20617;49.476;10.986;2023-05-21T03:45:22;97919.28;;;17.73;100.00
12879;BME280;20617;49.476;10.986;2023-05-21T03:47:46;97923.72;;;17.72;100.00
12879;BME280;20617;49.476;10.986;2023-05-21T03:49:55;97921.78;;;17.74;100.00
12879;BME280;20617;49.476;10.986;2023-05-21T03:52:01;97926.47;;;17.71;100.00
12879;BME280;20617;49.476;10.986;2023-05-21T03:54:06;97925.63;;;17.70;100.00
12879;BME280;20617;49.476;10.986;2023-05-21T03:56:11;97929.09;;;17.71;100.00
12879;BME280;20617;49.476;10.986;2023-05-21T03:58:17;97927.19;;;17.73;100.00
12879;BME280;20617;49.476;10.986;2023-05-21T04:00:22;97930.66;;;17.73;100.00
12879;BME280;20617;49.476;10.986;2023-05-21T04:02:27;97931.63;;;17.72;100.00
12879;BME280;20617;49.476;10.986;2023-05-21T04:04:32;97932.56;;;17.71;100.00
12879;BME280;20617;49.476;10.986;2023-05-21T04:06:41;97937.50;;;17.76;100.00
12879;BME280;20617;49.476;10.986;2023-05-21T04:08:46;97932.22;;;17.76;100.00
12879;BME280;20617;49.476;10.986;2023-05-21T04:10:52;97940.75;;;17.79;100.00
12879;BME280;20617;49.476;10.986;2023-05-21T04:12:57;97939.28;;;17.75;100.00
12879;BME280;20617;49.476;10.986;2023-05-21T04:15:03;97940.22;;;17.74;100.00
12879;BME280;20617;49.476;10.986;2023-05-21T04:17:09;97938.44;;;17.75;100.00
12879;BME280;20617;49.476;10.986;2023-05-21T04:19:14;97938.31;;;17.76;100.00
12879;BME280;20617;49.476;10.986;2023-05-21T04:21:20;97939.16;;;17.77;100.00
12879;BME280;20617;49.476;10.986;2023-05-21T04:23:28;97943.59;;;17.76;100.00
12879;BME280;20617;49.476;10.986;2023-05-21T04:25:33;97945.91;;;17.81;100.00
12879;BME280;20617;49.476;10.986;2023-05-21T04:27:40;97940.66;;;17.81;100.00
12879;BME280;20617;49.476;10.986;2023-05-21T04:29:48;97946.63;;;17.83;100.00
12879;BME280;20617;49.476;10.986;2023-05-21T04:31:57;97942.06;;;17.85;100.00
12879;BME280;20617;49.476;10.986;2023-05-21T04:34:03;97942.91;;;17.85;100.00
12879;BME280;20617;49.476;10.986;2023-05-21T04:36:07;97949.97;;;17.85;100.00
12879;BME280;20617;49.476;10.986;2023-05-21T04:38:14;97946.63;;;17.83;100.00
12879;BME280;20617;49.476;10.986;2023-05-21T04:40:23;97955.25;;;17.85;100.00
12879;BME280;20617;49.476;10.986;2023-05-21T04:42:28;97955.84;;;17.88;100.00
12879;BME280;20617;49.476;10.986;2023-05-21T04:44:34;97952.03;;;17.93;100.00
12879;BME280;20617;49.476;10.986;2023-05-21T04:46:40;97950.09;;;17.95;100.00
12879;BME280;20617;49.476;10.986;2023-05-21T04:48:47;97953.34;;;17.98;100.00
12879;BME280;20617;49.476;10.986;2023-05-21T04:50:53;97958.63;;;17.98;100.00
12879;BME280;20617;49.476;10.986;2023-05-21T04:52:59;97954.44;;;17.96;100.00
12879;BME280;20617;49.476;10.986;2023-05-21T04:55:05;97953.22;;;18.00;100.00
12879;BME280;20617;49.476;10.986;2023-05-21T04:57:13;97953.13;;;18.01;100.00
12879;BME280;20617;49.476;10.986;2023-05-21T04:59:19;97951.81;;;18.07;100.00
12879;BME280;20617;49.476;10.986;2023-05-21T05:01:31;97956.59;;;18.13;100.00
12879;BME280;20617;49.476;10.986;2023-05-21T05:03:36;97956.47;;;18.15;100.00
12879;BME280;20617;49.476;10.986;2023-05-21T05:05:41;97956.34;;;18.16;100.00
12879;BME280;20617;49.476;10.986;2023-05-21T05:07:46;97953.72;;;18.16;100.00
12879;BME280;20617;49.476;10.986;2023-05-21T05:09:51;97955.75;;;18.13;100.00
12879;BME280;20617;49.476;10.986;2023-05-21T05:11:56;97949.63;;;18.12;100.00
12879;BME280;20617;49.476;10.986;2023-05-21T05:14:05;97961.13;;;18.22;100.00
12879;BME280;20617;49.476;10.986;2023-05-21T05:16:10;97960.19;;;18.23;100.00
12879;BME280;20617;49.476;10.986;2023-05-21T05:18:28;97957.69;;;18.33;100.00
12879;BME280;20617;49.476;10.986;2023-05-21T05:20:35;97961.63;;;18.39;100.00
12879;BME280;20617;49.476;10.986;2023-05-21T05:22:40;97957.53;;;18.46;100.00
12879;BME280;20617;49.476;10.986;2023-05-21T05:24:47;97956.81;;;18.55;100.00
12879;BME280;20617;49.476;10.986;2023-05-21T05:26:52;97957.53;;;18.57;100.00
12879;BME280;20617;49.476;10.986;2023-05-21T05:28:57;97950.34;;;18.59;100.00
12879;BME280;20617;49.476;10.986;2023-05-21T05:31:05;97958.25;;;18.59;100.00
12879;BME280;20617;49.476;10.986;2023-05-21T05:33:10;97959.19;;;18.58;100.00
12879;BME280;20617;49.476;10.986;2023-05-21T05:35:15;97953.34;;;18.54;100.00
12879;BME280;20617;49.476;10.986;2023-05-21T05:37:20;97954.31;;;18.53;100.00
12879;BME280;20617;49.476;10.986;2023-05-21T05:39:25;97954.31;;;18.53;100.00
12879;BME280;20617;49.476;10.986;2023-05-21T05:41:30;97952.50;;;18.65;100.00
12879;BME280;20617;49.476;10.986;2023-05-21T05:43:35;97953.19;;;18.67;100.00
12879;BME280;20617;49.476;10.986;2023-05-21T05:45:40;97947.06;;;18.67;100.00
12879;BME280;20617;49.476;10.986;2023-05-21T05:47:50;97944.09;;;18.71;100.00
12879;BME280;20617;49.476;10.986;2023-05-21T05:49:56;97949.88;;;18.76;100.00
12879;BME280;20617;49.476;10.986;2023-05-21T05:52:00;97943.38;;;18.81;100.00
12879;BME280;20617;49.476;10.986;2023-05-21T05:54:06;97944.69;;;18.86;100.00
12879;BME280;20617;49.476;10.986;2023-05-21T05:56:11;97940.44;;;18.95;100.00
12879;BME280;20617;49.476;10.986;2023-05-21T05:58:18;97946.06;;;19.02;100.00
12879;BME280;20617;49.476;10.986;2023-05-21T06:00:37;97938.72;;;19.05;100.00
12879;BME280;20617;49.476;10.986;2023-05-21T06:02:43;97942.19;;;19.17;100.00
12879;BME280;20617;49.476;10.986;2023-05-21T06:04:52;97941.16;;;19.29;100.00
12879;BME280;20617;49.476;10.986;2023-05-21T06:06:57;97943.41;;;19.34;100.00
12879;BME280;20617;49.476;10.986;2023-05-21T06:09:02;97931.75;;;19.36;100.00
12879;BME280;20617;49.476;10.986;2023-05-21T06:11:07;97928.28;;;19.36;100.00
12879;BME280;20617;49.476;10.986;2023-05-21T06:13:13;97924.16;;;19.43;100.00
12879;BME280;20617;49.476;10.986;2023-05-21T06:15:19;97930.25;;;19.55;100.00
12879;BME280;20617;49.476;10.986;2023-05-21T06:17:26;97933.19;;;19.61;100.00
12879;BME280;20617;49.476;10.986;2023-05-21T06:19:42;97929.91;;;19.69;100.00
12879;BME280;20617;49.476;10.986;2023-05-21T06:21:49;97937.16;;;19.67;100.00
12879;BME280;20617;49.476;10.986;2023-05-21T06:23:56;97935.09;;;19.71;100.00
12879;BME280;20617;49.476;10.986;2023-05-21T06:26:02;97931.94;;;19.77;100.00
12879;BME280;20617;49.476;10.986;2023-05-21T06:28:08;97932.13;;;19.85;100.00
12879;BME280;20617;49.476;10.986;2023-05-21T06:30:13;97925.09;;;19.74;100.00
12879;BME280;20617;49.476;10.986;2023-05-21T06:32:18;97921.09;;;19.80;100.00
12879;BME280;20617;49.476;10.986;2023-05-21T06:34:24;97925.41;;;19.81;100.00
12879;BME280;20617;49.476;10.986;2023-05-21T06:36:29;97920.31;;;19.89;100.00
12879;BME280;20617;49.476;10.986;2023-05-21T06:38:38;97922.25;;;19.87;100.00
12879;BME280;20617;49.476;10.986;2023-05-21T06:40:43;97927.28;;;19.90;100.00
12879;BME280;20617;49.476;10.986;2023-05-21T06:42:59;97920.31;;;19.89;100.00
12879;BME280;20617;49.476;10.986;2023-05-21T06:45:31;97914.50;;;19.95;100.00
12879;BME280;20617;49.476;10.986;2023-05-21T06:47:48;97921.66;;;20.04;100.00
12879;BME280;20617;49.476;10.986;2023-05-21T06:49:52;97918.56;;;19.99;100.00
12879;BME280;20617;49.476;10.986;2023-05-21T06:51:58;97917.88;;;20.07;100.00
12879;BME280;20617;49.476;10.986;2023-05-21T06:54:06;97920.13;;;20.11;100.00
12879;BME280;20617;49.476;10.986;2023-05-21T06:56:15;97922.69;;;20.23;100.00
12879;BME280;20617;49.476;10.986;2023-05-21T06:58:20;97918.94;;;20.25;100.00
12879;BME280;20617;49.476;10.986;2023-05-21T07:00:26;97912.97;;;20.33;100.00
12879;BME280;20617;49.476;10.986;2023-05-21T07:02:32;97918.31;;;20.43;100.00
12879;BME280;20617;49.476;10.986;2023-05-21T07:04:40;97920.53;;;20.47;100.00
12879;BME280;20617;49.476;10.986;2023-05-21T07:06:45;97912.75;;;20.46;100.00
12879;BME280;20617;49.476;10.986;2023-05-21T07:08:50;97914.47;;;20.56;100.00
12879;BME280;20617;49.476;10.986;2023-05-21T07:10:58;97913.53;;;20.67;100.00
12879;BME280;20617;49.476;10.986;2023-05-21T07:13:04;97924.97;;;20.77;100.00
12879;BME280;20617;49.476;10.986;2023-05-21T07:15:10;97918.69;;;20.88;100.00
12879;BME280;20617;49.476;10.986;2023-05-21T07:17:15;97919.97;;;21.03;100.00
12879;BME280;20617;49.476;10.986;2023-05-21T07:19:20;97909.78;;;21.09;100.00
12879;BME280;20617;49.476;10.986;2023-05-21T07:21:25;97913.44;;;21.08;100.00
12879;BME280;20617;49.476;10.986;2023-05-21T07:23:30;97914.81;;;21.12;100.00
12879;BME280;20617;49.476;10.986;2023-05-21T07:25:36;97913.44;;;21.27;100.00
12879;BME280;20617;49.476;10.986;2023-05-21T07:27:44;97919.56;;;21.37;100.00
12879;BME280;20617;49.476;10.986;2023-05-21T07:29:49;97914.28;;;21.47;100.00
12879;BME280;20617;49.476;10.986;2023-05-21T07:31:56;97915.63;;;21.61;100.00
12879;BME280;20617;49.476;10.986;2023-05-21T07:34:02;97919.13;;;21.71;100.00
12879;BME280;20617;49.476;10.986;2023-05-21T07:36:07;97924.91;;;21.84;100.00
12879;BME280;20617;49.476;10.986;2023-05-21T07:38:12;97915.88;;;21.77;100.00
12879;BME280;20617;49.476;10.986;2023-05-21T07:40:17;97915.06;;;21.77;100.00
12879;BME280;20617;49.476;10.986;2023-05-21T07:42:22;97911.00;;;21.82;100.00
12879;BME280;20617;49.476;10.986;2023-05-21T07:44:31;97909.00;;;21.94;100.00
12879;BME280;20617;49.476;10.986;2023-05-21T07:46:37;97902.97;;;22.02;100.00
12879;BME280;20617;49.476;10.986;2023-05-21T07:48:46;97906.28;;;22.13;100.00
12879;BME280;20617;49.476;10.986;2023-05-21T07:50:51;97907.13;;;22.14;100.00
12879;BME280;20617;49.476;10.986;2023-05-21T07:52:59;97907.94;;;22.24;100.00
12879;BME280;20617;49.476;10.986;2023-05-21T07:55:07;97909.03;;;22.31;100.00
12879;BME280;20617;49.476;10.986;2023-05-21T07:57:14;97903.56;;;22.33;100.00
12879;BME280;20617;49.476;10.986;2023-05-21T07:59:32;97898.56;;;22.30;100.00
12879;BME280;20617;49.476;10.986;2023-05-21T08:01:39;97903.88;;;22.30;100.00
12879;BME280;20617;49.476;10.986;2023-05-21T08:03:47;97902.44;;;22.35;100.00
12879;BME280;20617;49.476;10.986;2023-05-21T08:06:00;97906.31;;;22.41;100.00
12879;BME280;20617;49.476;10.986;2023-05-21T08:08:06;97904.19;;;22.45;100.00
12879;BME280;20617;49.476;10.986;2023-05-21T08:10:12;97910.03;;;22.48;100.00
12879;BME280;20617;49.476;10.986;2023-05-21T08:12:21;97901.13;;;22.49;100.00
12879;BME280;20617;49.476;10.986;2023-05-21T08:14:26;97908.09;;;22.50;100.00
12879;BME280;20617;49.476;10.986;2023-05-21T08:16:33;97909.00;;;22.59;100.00
12879;BME280;20617;49.476;10.986;2023-05-21T08:18:39;97902.16;;;22.66;100.00
12879;BME280;20617;49.476;10.986;2023-05-21T08:20:44;97891.56;;;22.56;100.00
12879;BME280;20617;49.476;10.986;2023-05-21T08:22:52;97900.06;;;22.60;100.00
12879;BME280;20617;49.476;10.986;2023-05-21T08:24:58;97900.31;;;22.67;100.00
12879;BME280;20617;49.476;10.986;2023-05-21T08:27:04;97896.97;;;22.82;100.00
12879;BME280;20617;49.476;10.986;2023-05-21T08:29:09;97897.19;;;22.99;100.00
12879;BME280;20617;49.476;10.986;2023-05-21T08:31:16;97889.81;;;23.11;100.00
12879;BME280;20617;49.476;10.986;2023-05-21T08:33:28;97896.56;;;23.05;100.00
12879;BME280;20617;49.476;10.986;2023-05-21T08:35:33;97899.97;;;22.97;100.00
12879;BME280;20617;49.476;10.986;2023-05-21T08:37:50;97896.06;;;23.01;100.00
12879;BME280;20617;49.476;10.986;2023-05-21T08:40:13;97894.63;;;23.07;100.00
12879;BME280;20617;49.476;10.986;2023-05-21T08:42:24;97902.47;;;23.17;100.00
12879;BME280;20617;49.476;10.986;2023-05-21T08:44:42;97893.47;;;23.27;100.00
12879;BME280;20617;49.476;10.986;2023-05-21T08:46:53;97890.91;;;23.44;100.00
12879;BME280;20617;49.476;10.986;2023-05-21T08:49:04;97891.75;;;23.44;100.00
12879;BME280;20617;49.476;10.986;2023-05-21T08:51:12;97887.31;;;23.53;100.00
12879;BME280;20617;49.476;10.986;2023-05-21T08:53:22;97887.69;;;23.58;100.00
12879;BME280;20617;49.476;10.986;2023-05-21T08:55:31;97893.69;;;23.60;100.00
12879;BME280;20617;49.476;10.986;2023-05-21T08:57:42;97894.38;;;23.62;100.00
12879;BME280;20617;49.476;10.986;2023-05-21T08:59:50;97895.00;;;23.56;100.00
12879;BME280;20617;49.476;10.986;2023-05-21T09:02:00;97891.66;;;23.54;100.00
12879;BME280;20617;49.476;10.986;2023-05-21T09:04:12;97895.66;;;23.58;100.00
12879;BME280;20617;49.476;10.986;2023-05-21T09:06:26;97883.22;;;23.59;100.00
12879;BME280;20617;49.476;10.986;2023-05-21T09:08:42;97891.25;;;23.67;100.00
12879;BME280;20617;49.476;10.986;2023-05-21T09:11:05;97891.78;;;23.70;100.00
12879;BME280;20617;49.476;10.986;2023-05-21T09:13:20;97885.00;;;23.76;100.00
12879;BME280;20617;49.476;10.986;2023-05-21T09:15:25;97883.72;;;23.80;100.00
12879;BME280;20617;49.476;10.986;2023-05-21T09:17:31;97890.56;;;23.83;100.00
12879;BME280;20617;49.476;10.986;2023-05-21T09:20:12;97889.91;;;23.89;100.00
12879;BME280;20617;49.476;10.986;2023-05-21T09:22:24;97890.28;;;23.94;100.00
12879;BME280;20617;49.476;10.986;2023-05-21T09:24:29;97895.28;;;23.97;100.00
12879;BME280;20617;49.476;10.986;2023-05-21T09:26:41;97891.69;;;24.06;100.00
12879;BME280;20617;49.476;10.986;2023-05-21T09:28:47;97880.72;;;24.09;99.77
12879;BME280;20617;49.476;10.986;2023-05-21T09:30:53;97884.28;;;24.26;99.58
12879;BME280;20617;49.476;10.986;2023-05-21T09:32:58;97884.38;;;24.43;98.05
12879;BME280;20617;49.476;10.986;2023-05-21T09:35:06;97891.22;;;24.53;98.66
12879;BME280;20617;49.476;10.986;2023-05-21T09:37:14;97884.28;;;24.69;99.31
12879;BME280;20617;49.476;10.986;2023-05-21T09:39:28;97885.31;;;24.76;98.77
12879;BME280;20617;49.476;10.986;2023-05-21T09:41:36;97884.13;;;24.87;94.72
12879;BME280;20617;49.476;10.986;2023-05-21T09:43:43;97884.66;;;24.98;96.74
12879;BME280;20617;49.476;10.986;2023-05-21T09:45:50;97876.72;;;25.15;97.23
12879;BME280;20617;49.476;10.986;2023-05-21T09:48:00;97878.38;;;25.16;96.19
12879;BME280;20617;49.476;10.986;2023-05-21T09:50:07;97881.66;;;25.10;94.91
12879;BME280;20617;49.476;10.986;2023-05-21T09:52:22;97881.03;;;25.07;95.12
12879;BME280;20617;49.476;10.986;2023-05-21T09:54:30;97883.84;;;25.06;94.12
12879;BME280;20617;49.476;10.986;2023-05-21T09:56:36;97883.69;;;25.07;95.30
12879;BME280;20617;49.476;10.986;2023-05-21T09:58:41;97883.34;;;25.19;95.20
12879;BME280;20617;49.476;10.986;2023-05-21T10:00:47;97884.53;;;25.24;94.89
12879;BME280;20617;49.476;10.986;2023-05-21T10:02:54;97880.84;;;25.34;96.13
12879;BME280;20617;49.476;10.986;2023-05-21T10:04:59;97887.72;;;25.28;95.03
12879;BME280;20617;49.476;10.986;2023-05-21T10:07:05;97878.72;;;25.29;94.92
12879;BME280;20617;49.476;10.986;2023-05-21T10:09:14;97885.34;;;25.33;94.13
12879;BME280;20617;49.476;10.986;2023-05-21T10:11:24;97885.88;;;25.28;95.00
12879;BME280;20617;49.476;10.986;2023-05-21T10:13:30;97882.19;;;25.21;95.28
12879;BME280;20617;49.476;10.986;2023-05-21T10:15:41;97885.34;;;25.08;95.29
12879;BME280;20617;49.476;10.986;2023-05-21T10:17:51;97882.16;;;25.13;96.39
12879;BME280;20617;49.476;10.986;2023-05-21T10:20:01;97878.66;;;25.13;94.50
12879;BME280;20617;49.476;10.986;2023-05-21T10:22:07;97877.72;;;25.14;94.36
12879;BME280;20617;49.476;10.986;2023-05-21T10:24:25;97881.72;;;25.34;93.66
12879;BME280;20617;49.476;10.986;2023-05-21T10:26:34;97873.19;;;25.39;92.93
12879;BME280;20617;49.476;10.986;2023-05-21T10:28:39;97876.69;;;25.39;92.82
12879;BME280;20617;49.476;10.986;2023-05-21T10:30:46;97868.53;;;25.41;93.34
12879;BME280;20617;49.476;10.986;2023-05-21T10:32:57;97874.69;;;25.49;93.05
12879;BME280;20617;49.476;10.986;2023-05-21T10:35:08;97865.53;;;25.52;96.97
12879;BME280;20617;49.476;10.986;2023-05-21T10:37:15;97881.34;;;25.53;99.38
12879;BME280;20617;49.476;10.986;2023-05-21T10:39:21;97876.06;;;25.45;100.00
12879;BME280;20617;49.476;10.986;2023-05-21T10:41:35;97862.53;;;25.39;100.00
12879;BME280;20617;49.476;10.986;2023-05-21T10:43:50;97858.41;;;25.28;100.00
12879;BME280;20617;49.476;10.986;2023-05-21T10:48:52;97872.88;;;25.17;100.00
12879;BME280;20617;49.476;10.986;2023-05-21T10:51:20;97861.56;;;25.15;100.00
12879;BME280;20617;49.476;10.986;2023-05-21T10:53:32;97860.06;;;25.21;100.00
12879;BME280;20617;49.476;10.986;2023-05-21T10:55:57;97863.38;;;25.15;100.00
12879;BME280;20617;49.476;10.986;2023-05-21T11:01:04;97856.53;;;25.04;100.00
12879;BME280;20617;49.476;10.986;2023-05-21T11:03:25;97863.88;;;25.18;100.00
12879;BME280;20617;49.476;10.986;2023-05-21T11:06:01;97855.22;;;25.24;100.00